Accueil
METAR-TAF:

METAR-TAF

Aéroports :

Skyhaven Airport

Rochester, New Hampshire, États-Unis

latitude: 43-16-41N, longitude: 070-55-20W, altitude: 98 m

Observation

Le bulletin a été fait il y a 46 minutes, à 04:51 UTC
Vent calme
Température 6°C
Humidité 65%
Pression 1021 hPa
Visibilité: 16.1 km
Ciel couvert à une hauteur de 4500 ft

METAR: KDAW 280451Z AUTO 00000KT 10SM OVC045 06/00 A3016 RMK AO2 SLP212 T00560000 401220056

Heure: 01:37 (05:37 UTC)


TAF: absent

Observations et prévisions météorologiques de plus de 4000 aéroports (messages METAR et TAF).

Les stations disponibles sont représentées par des disques jaunes et rouges sur la carte.

Passer la souris dessus pour voir le nom de la station.

Cliquer dessus pour voir les observations et prévisions météorologiques.

Pour changer de carte: cliquez sur les boutons verts avec une croix noire pour zoomer, sur le bouton vert avec un tiret pour effectuer un zoom arrière, ou sur les flèches vertes pour les cartes adjacentes.


METAR-TAF: